createdAt,value
2019-03-31T14:30:39.642Z,20.99
2019-03-31T14:33:31.212Z,21.00
2019-03-31T14:36:24.655Z,21.03
2019-03-31T14:39:17.091Z,21.12
2019-03-31T14:42:08.763Z,21.17
2019-03-31T14:45:02.010Z,21.20
2019-03-31T14:47:52.427Z,21.20
2019-03-31T14:50:43.930Z,21.21
2019-03-31T14:53:35.920Z,21.20
2019-03-31T14:56:26.665Z,21.23
2019-03-31T14:59:17.576Z,21.23
2019-03-31T15:02:08.142Z,21.25
2019-03-31T15:04:59.086Z,21.27
2019-03-31T15:07:48.941Z,21.29
2019-03-31T15:10:40.553Z,21.32
2019-03-31T15:13:30.507Z,21.30
2019-03-31T15:16:20.868Z,21.25
2019-03-31T15:19:14.182Z,21.18
2019-03-31T15:22:05.256Z,21.09
2019-03-31T15:24:57.877Z,21.05
2019-03-31T15:27:48.697Z,21.06
2019-03-31T15:30:39.104Z,21.04
2019-03-31T15:33:28.749Z,21.04
2019-03-31T15:36:19.233Z,21.10
2019-03-31T15:39:10.674Z,21.12
2019-03-31T15:42:00.561Z,21.16
2019-03-31T15:44:51.893Z,21.22
2019-03-31T15:47:43.737Z,21.25
2019-03-31T15:50:33.991Z,21.26
2019-03-31T15:53:24.424Z,21.25
2019-03-31T15:56:14.470Z,21.26
2019-03-31T15:59:05.810Z,21.24
2019-03-31T16:01:56.299Z,21.29
2019-03-31T16:04:46.948Z,21.30
2019-03-31T16:07:37.523Z,21.31
2019-03-31T16:10:26.898Z,21.31
2019-03-31T16:13:15.804Z,21.31
2019-03-31T16:16:05.121Z,21.30
2019-03-31T16:18:54.525Z,21.29
2019-03-31T16:21:44.447Z,21.26
2019-03-31T16:24:39.437Z,21.20
2019-03-31T16:27:28.778Z,21.14
2019-03-31T16:30:19.036Z,21.06
2019-03-31T16:33:08.785Z,20.95
2019-03-31T16:36:00.060Z,20.83
2019-03-31T16:38:49.080Z,20.64
2019-03-31T16:41:38.247Z,20.43
2019-03-31T16:44:27.034Z,20.22
2019-03-31T16:47:17.133Z,19.98
2019-03-31T16:50:08.089Z,19.78
2019-03-31T16:52:57.682Z,19.57
2019-03-31T16:55:48.008Z,19.36
2019-03-31T16:58:37.532Z,19.14
2019-03-31T17:01:26.801Z,18.95
2019-03-31T17:04:16.447Z,18.75
2019-03-31T17:07:05.831Z,18.59
2019-03-31T17:09:55.548Z,18.38
2019-03-31T17:12:45.736Z,18.16
2019-03-31T17:15:35.845Z,17.99
2019-03-31T17:18:25.089Z,17.81
2019-03-31T17:21:14.448Z,17.63
2019-03-31T17:24:04.184Z,17.47
2019-03-31T17:26:53.770Z,17.32
2019-03-31T17:29:43.455Z,17.15
2019-03-31T17:32:33.084Z,17.00
2019-03-31T17:35:22.526Z,16.86
2019-03-31T17:38:11.583Z,16.72
2019-03-31T17:41:01.478Z,16.59
2019-03-31T17:43:50.834Z,16.41
2019-03-31T17:46:41.260Z,16.29
2019-03-31T17:49:30.904Z,16.13
2019-03-31T17:52:22.635Z,16.02
2019-03-31T17:55:12.968Z,15.88
2019-03-31T17:58:04.866Z,15.75
2019-03-31T18:00:54.953Z,15.59
2019-03-31T18:03:45.237Z,15.45
2019-03-31T18:06:34.663Z,15.32
2019-03-31T18:09:24.158Z,15.19
2019-03-31T18:12:13.135Z,15.05
2019-03-31T18:15:02.347Z,14.94
2019-03-31T18:17:51.996Z,14.80
2019-03-31T18:20:44.104Z,14.66
2019-03-31T18:23:33.866Z,14.54
2019-03-31T18:26:24.568Z,14.39
2019-03-31T18:29:13.429Z,14.27
2019-03-31T18:32:02.747Z,14.15
2019-03-31T18:34:51.567Z,14.03
2019-03-31T18:37:40.413Z,13.89
2019-03-31T18:40:35.216Z,13.77
2019-03-31T18:43:20.633Z,13.66
2019-03-31T18:46:10.642Z,13.53
2019-03-31T18:49:00.280Z,13.41
2019-03-31T18:51:49.516Z,13.30
2019-03-31T18:54:56.416Z,13.19
2019-03-31T18:58:04.254Z,13.08
2019-03-31T19:01:16.982Z,12.95
2019-03-31T19:04:29.297Z,12.82
2019-03-31T19:07:52.621Z,12.71
2019-03-31T19:11:19.075Z,12.57
2019-03-31T19:14:21.389Z,12.48
2019-03-31T19:17:32.085Z,12.36
2019-03-31T19:20:43.347Z,12.25
2019-03-31T19:23:39.513Z,12.15
2019-03-31T19:26:58.959Z,12.04
2019-03-31T19:30:03.373Z,11.94
2019-03-31T19:33:10.671Z,11.85
2019-03-31T19:36:31.847Z,11.74
2019-03-31T19:39:36.285Z,11.65
2019-03-31T19:42:38.268Z,11.55
2019-03-31T19:46:05.744Z,11.47
2019-03-31T19:49:23.223Z,11.38
2019-03-31T19:52:31.131Z,11.29
2019-03-31T19:55:30.048Z,11.19
2019-03-31T19:58:38.877Z,11.10
2019-03-31T20:01:43.246Z,11.01
2019-03-31T20:05:03.862Z,10.98
2019-03-31T20:08:14.412Z,10.90
2019-03-31T20:11:13.962Z,10.79
2019-03-31T20:14:21.858Z,10.71
2019-03-31T20:17:20.866Z,10.65
2019-03-31T20:20:20.019Z,10.59
2019-03-31T20:23:27.790Z,10.51
2019-03-31T20:26:35.037Z,10.43
2019-03-31T20:29:43.914Z,10.36
2019-03-31T20:32:39.736Z,10.28
2019-03-31T20:35:46.705Z,10.21
2019-03-31T20:38:55.661Z,10.14
2019-03-31T20:42:03.478Z,10.07
2019-03-31T20:44:54.695Z,10.00
2019-03-31T20:47:43.920Z,9.91
2019-03-31T20:50:32.818Z,9.85
2019-03-31T20:53:22.549Z,9.81
2019-03-31T20:56:12.196Z,9.74
2019-03-31T20:59:01.843Z,9.70
2019-03-31T21:01:51.573Z,9.63
2019-03-31T21:04:41.911Z,9.57
2019-03-31T21:07:31.060Z,9.53
2019-03-31T21:10:21.748Z,9.47
2019-03-31T21:13:11.447Z,9.42
2019-03-31T21:16:02.049Z,9.36
2019-03-31T21:18:51.999Z,9.31
2019-03-31T21:21:41.707Z,9.24
2019-03-31T21:24:30.763Z,9.19
2019-03-31T21:27:19.869Z,9.13
2019-03-31T21:30:09.501Z,9.08
2019-03-31T21:32:59.096Z,9.04
2019-03-31T21:35:49.046Z,9.00
2019-03-31T21:38:38.563Z,8.93
2019-03-31T21:41:28.078Z,8.88
2019-03-31T21:44:16.700Z,8.83
2019-03-31T21:47:06.363Z,8.78
2019-03-31T21:49:55.106Z,8.72
2019-03-31T21:52:44.446Z,8.66
2019-03-31T21:55:34.432Z,8.62
2019-03-31T21:58:24.117Z,8.57
2019-03-31T22:01:13.782Z,8.50
2019-03-31T22:04:03.078Z,8.48
2019-03-31T22:06:52.340Z,8.43
2019-03-31T22:09:41.374Z,8.38
2019-03-31T22:12:30.813Z,8.32
2019-03-31T22:15:19.862Z,8.28
2019-03-31T22:18:08.608Z,8.23
2019-03-31T22:20:57.858Z,8.19
2019-03-31T22:23:57.781Z,8.15
2019-03-31T22:26:38.994Z,8.08
2019-03-31T22:29:28.623Z,8.06
2019-03-31T22:32:18.256Z,7.99
2019-03-31T22:35:07.750Z,7.96
2019-03-31T22:37:56.887Z,7.91
2019-03-31T22:40:47.365Z,7.88
2019-03-31T22:43:36.954Z,7.84
2019-03-31T22:46:25.892Z,7.80
2019-03-31T22:49:15.527Z,7.76
2019-03-31T22:52:04.430Z,7.71
2019-03-31T22:54:54.654Z,7.68
2019-03-31T22:57:44.182Z,7.64
2019-03-31T23:00:33.308Z,7.59
2019-03-31T23:03:22.152Z,7.54
2019-03-31T23:06:11.916Z,7.48
2019-03-31T23:09:01.220Z,7.47
2019-03-31T23:11:51.171Z,7.42
2019-03-31T23:14:40.913Z,7.36
2019-03-31T23:17:30.635Z,7.33
2019-03-31T23:20:20.325Z,7.29
2019-03-31T23:23:10.118Z,7.26
2019-03-31T23:25:59.758Z,7.21
2019-03-31T23:28:49.702Z,7.15
2019-03-31T23:31:39.268Z,7.12
2019-03-31T23:34:28.363Z,7.07
2019-03-31T23:37:17.880Z,7.05
2019-03-31T23:40:07.152Z,7.00
2019-03-31T23:42:57.558Z,6.96
2019-03-31T23:45:46.812Z,6.90
2019-03-31T23:48:36.378Z,6.89
2019-03-31T23:51:25.983Z,6.84
2019-03-31T23:54:14.816Z,6.81
2019-03-31T23:57:04.252Z,6.75
2019-03-31T23:59:53.494Z,6.73
